createdAt,value
2019-06-27T00:01:35.825Z,28.50
2019-06-27T00:04:02.833Z,28.40
2019-06-27T00:06:29.837Z,28.40
2019-06-27T00:08:56.984Z,28.40
2019-06-27T00:11:23.873Z,28.30
2019-06-27T00:13:50.810Z,28.30
2019-06-27T00:16:17.835Z,28.30
2019-06-27T00:18:44.871Z,28.20
2019-06-27T00:21:11.821Z,28.20
2019-06-27T00:23:39.827Z,28.10
2019-06-27T00:26:06.899Z,28.10
2019-06-27T00:28:33.979Z,28.10
2019-06-27T00:31:01.069Z,28.00
2019-06-27T00:33:28.249Z,28.00
2019-06-27T00:35:55.224Z,28.00
2019-06-27T00:38:22.313Z,28.00
2019-06-27T00:40:49.394Z,27.90
2019-06-27T00:43:16.373Z,27.90
2019-06-27T00:45:43.455Z,27.90
2019-06-27T00:48:10.462Z,27.90
2019-06-27T00:50:37.542Z,27.90
2019-06-27T00:53:04.466Z,27.80
2019-06-27T00:55:31.528Z,27.80
2019-06-27T00:57:58.465Z,27.80
2019-06-27T01:00:27.550Z,27.80
2019-06-27T01:02:54.898Z,27.80
2019-06-27T01:05:21.904Z,27.70
2019-06-27T01:07:49.008Z,27.70
2019-06-27T01:10:16.543Z,27.70
2019-06-27T01:12:43.669Z,27.60
2019-06-27T01:15:11.870Z,27.60
2019-06-27T01:17:38.833Z,27.60
2019-06-27T01:20:25.272Z,27.50
2019-06-27T01:22:52.381Z,27.60
2019-06-27T01:25:19.517Z,27.50
2019-06-27T01:27:46.690Z,27.50
2019-06-27T01:30:13.933Z,27.50
2019-06-27T01:32:40.998Z,27.40
2019-06-27T01:35:08.600Z,27.30
2019-06-27T01:37:35.652Z,27.30
2019-06-27T01:40:03.619Z,27.30
2019-06-27T01:42:31.587Z,27.30
2019-06-27T01:45:00.423Z,27.30
2019-06-27T01:47:27.502Z,27.30
2019-06-27T01:49:54.453Z,27.20
2019-06-27T01:52:22.510Z,27.10
2019-06-27T01:54:49.461Z,27.10
2019-06-27T01:57:18.537Z,27.10
2019-06-27T01:59:45.495Z,27.10
2019-06-27T02:02:12.508Z,27.00
2019-06-27T02:04:39.580Z,27.00
2019-06-27T02:07:06.709Z,27.00
2019-06-27T02:09:33.725Z,26.90
2019-06-27T02:12:01.866Z,26.80
2019-06-27T02:14:29.032Z,26.80
2019-06-27T02:16:56.471Z,26.80
2019-06-27T02:19:23.929Z,26.70
2019-06-27T02:21:50.962Z,26.60
2019-06-27T02:24:18.073Z,26.60
2019-06-27T02:26:45.218Z,26.50
2019-06-27T02:29:12.276Z,26.50
2019-06-27T02:31:39.337Z,26.50
2019-06-27T02:34:07.324Z,26.50
2019-06-27T02:36:34.537Z,26.50
2019-06-27T02:39:01.710Z,26.50
2019-06-27T02:41:28.735Z,26.50
2019-06-27T02:43:55.792Z,26.50
2019-06-27T02:46:22.914Z,26.50
2019-06-27T02:48:50.203Z,26.40
2019-06-27T02:51:17.269Z,26.40
2019-06-27T02:53:44.299Z,26.40
2019-06-27T02:56:11.247Z,26.40
2019-06-27T02:58:38.227Z,26.30
2019-06-27T03:01:05.248Z,26.20
2019-06-27T03:03:32.412Z,26.20
2019-06-27T03:05:59.440Z,26.20
2019-06-27T03:08:26.493Z,26.10
2019-06-27T03:10:53.909Z,26.10
2019-06-27T03:13:20.911Z,26.00
2019-06-27T03:15:48.111Z,26.00
2019-06-27T03:18:15.248Z,26.00
2019-06-27T03:20:42.381Z,26.00
2019-06-27T03:23:09.449Z,25.90
2019-06-27T03:25:36.468Z,25.90
2019-06-27T03:28:04.190Z,25.90
2019-06-27T03:30:31.239Z,25.90
2019-06-27T03:32:58.309Z,25.80
2019-06-27T03:35:26.651Z,25.70
2019-06-27T03:37:53.742Z,25.70
2019-06-27T03:40:20.657Z,25.70
2019-06-27T03:42:48.764Z,25.60
2019-06-27T03:45:16.465Z,25.60
2019-06-27T03:47:43.700Z,25.60
2019-06-27T03:50:10.715Z,25.60
2019-06-27T03:52:37.746Z,25.50
2019-06-27T03:55:06.229Z,25.50
2019-06-27T03:57:33.200Z,25.50
2019-06-27T04:00:00.287Z,25.40
2019-06-27T04:02:27.327Z,25.40
2019-06-27T04:04:54.458Z,25.40
2019-06-27T04:07:21.713Z,25.40
2019-06-27T04:09:48.791Z,25.30
2019-06-27T04:12:15.789Z,25.30
2019-06-27T04:14:42.698Z,25.30
2019-06-27T04:17:09.764Z,25.30
2019-06-27T04:19:36.829Z,25.30
2019-06-27T04:22:03.949Z,25.30
2019-06-27T04:24:30.987Z,25.30
2019-06-27T04:26:58.090Z,25.20
2019-06-27T04:29:33.357Z,25.20
2019-06-27T04:31:54.031Z,25.20
2019-06-27T04:34:21.141Z,25.20
2019-06-27T04:36:48.157Z,25.20
2019-06-27T04:39:15.111Z,25.20
2019-06-27T04:41:42.064Z,25.20
2019-06-27T04:44:09.084Z,25.20
2019-06-27T04:46:37.241Z,25.20
2019-06-27T04:49:04.242Z,25.20
2019-06-27T04:51:31.294Z,25.20
2019-06-27T04:53:58.281Z,25.30
2019-06-27T04:56:25.531Z,25.10
2019-06-27T04:58:52.651Z,25.10
2019-06-27T05:01:19.632Z,25.10
2019-06-27T05:03:46.833Z,25.10
2019-06-27T05:06:13.833Z,25.10
2019-06-27T05:08:40.912Z,25.10
2019-06-27T05:11:07.965Z,25.10
2019-06-27T05:13:35.029Z,25.10
2019-06-27T05:16:02.024Z,25.10
2019-06-27T05:18:31.175Z,25.10
2019-06-27T05:20:58.209Z,25.10
2019-06-27T05:23:25.213Z,25.10
2019-06-27T05:25:52.198Z,25.20
2019-06-27T05:28:19.208Z,25.20
2019-06-27T05:30:51.099Z,25.20
2019-06-27T05:33:16.140Z,25.20
2019-06-27T05:35:43.205Z,25.20
2019-06-27T05:38:11.477Z,25.20
2019-06-27T05:40:38.864Z,25.20
2019-06-27T05:43:06.268Z,25.30
2019-06-27T05:45:33.280Z,25.30
2019-06-27T05:48:00.337Z,25.40
2019-06-27T05:50:27.403Z,25.40
2019-06-27T05:52:55.728Z,25.40
2019-06-27T05:55:22.804Z,25.40
2019-06-27T05:57:53.710Z,25.50
2019-06-27T06:00:28.687Z,25.50
2019-06-27T06:02:51.499Z,25.50
2019-06-27T06:05:18.668Z,25.50
2019-06-27T06:07:46.814Z,25.50
2019-06-27T06:10:13.965Z,25.50
2019-06-27T06:12:40.971Z,25.60
2019-06-27T06:15:08.512Z,25.60
2019-06-27T06:17:35.462Z,25.70
2019-06-27T06:20:02.730Z,25.70
2019-06-27T06:22:29.731Z,25.80
2019-06-27T06:24:58.307Z,25.90
2019-06-27T06:27:26.005Z,25.80
2019-06-27T06:29:53.036Z,25.80
2019-06-27T06:32:20.220Z,25.70
2019-06-27T06:34:47.284Z,25.80
2019-06-27T06:37:14.514Z,25.80
2019-06-27T06:39:41.424Z,25.80
2019-06-27T06:42:08.538Z,25.90
2019-06-27T06:44:35.641Z,25.90
2019-06-27T06:47:02.794Z,26.00
2019-06-27T06:49:29.845Z,25.90
2019-06-27T06:51:56.885Z,26.00
2019-06-27T06:54:25.042Z,26.00
2019-06-27T06:56:52.129Z,26.00
2019-06-27T06:59:19.133Z,26.00
2019-06-27T07:01:46.224Z,26.00
2019-06-27T07:04:13.276Z,26.00
2019-06-27T07:06:40.263Z,25.90
2019-06-27T07:09:07.216Z,25.90
2019-06-27T07:11:34.212Z,26.20
2019-06-27T07:14:01.162Z,26.50
2019-06-27T07:16:28.249Z,26.80
2019-06-27T07:18:55.223Z,27.10
2019-06-27T07:21:22.435Z,27.20
2019-06-27T07:23:49.699Z,27.40
2019-06-27T07:26:16.880Z,27.40
2019-06-27T07:28:44.026Z,27.30
2019-06-27T07:31:17.705Z,27.20
2019-06-27T07:33:39.865Z,27.20
2019-06-27T07:36:07.016Z,27.20
2019-06-27T07:38:34.345Z,27.00
2019-06-27T07:41:01.760Z,27.00
2019-06-27T07:43:28.934Z,26.90
2019-06-27T07:45:55.944Z,26.90
2019-06-27T07:48:22.882Z,26.80
2019-06-27T07:50:49.901Z,26.80
2019-06-27T07:53:16.888Z,26.70
2019-06-27T07:55:43.945Z,26.70
2019-06-27T07:58:11.013Z,26.70
2019-06-27T08:00:38.128Z,26.70
2019-06-27T08:03:05.114Z,26.60
2019-06-27T08:05:32.321Z,26.60
2019-06-27T08:07:59.383Z,26.60
2019-06-27T08:10:26.292Z,26.60
2019-06-27T08:12:53.524Z,26.50
2019-06-27T08:15:21.987Z,26.60
2019-06-27T08:17:48.991Z,26.60
2019-06-27T08:20:15.907Z,26.80
2019-06-27T08:22:43.080Z,26.80
2019-06-27T08:25:11.364Z,26.80
2019-06-27T08:27:38.370Z,26.90
2019-06-27T08:30:08.210Z,27.10
2019-06-27T08:32:34.593Z,27.10
2019-06-27T08:35:01.519Z,27.20
2019-06-27T08:37:28.688Z,27.20
2019-06-27T08:39:55.889Z,27.10
2019-06-27T08:42:23.461Z,27.00
2019-06-27T08:44:52.666Z,27.00
2019-06-27T08:47:19.721Z,27.00
2019-06-27T08:49:46.754Z,27.10
2019-06-27T08:52:13.699Z,27.00
2019-06-27T08:54:40.853Z,27.10
2019-06-27T08:57:08.077Z,27.20
2019-06-27T08:59:35.154Z,27.40
2019-06-27T09:02:08.443Z,27.70
2019-06-27T09:04:31.277Z,28.10
2019-06-27T09:06:58.356Z,28.40
2019-06-27T09:09:25.495Z,28.80
2019-06-27T09:11:52.571Z,29.10
2019-06-27T09:14:20.350Z,29.40
2019-06-27T09:16:47.466Z,30.10
2019-06-27T09:19:14.608Z,30.50
2019-06-27T09:21:41.664Z,30.80
2019-06-27T09:24:08.660Z,30.70
2019-06-27T09:26:35.853Z,30.90
2019-06-27T09:29:03.123Z,31.10
2019-06-27T09:31:30.529Z,31.20
2019-06-27T09:33:57.710Z,30.90
2019-06-27T09:36:24.820Z,30.70
2019-06-27T09:38:51.734Z,30.50
2019-06-27T09:41:20.198Z,30.50
2019-06-27T09:43:48.031Z,30.30
2019-06-27T09:46:18.420Z,30.20
2019-06-27T09:48:45.496Z,30.10
2019-06-27T09:51:12.523Z,29.90
2019-06-27T09:53:39.588Z,29.70
2019-06-27T09:56:06.827Z,29.60
2019-06-27T09:58:33.957Z,29.60
2019-06-27T10:01:05.736Z,29.60
2019-06-27T10:03:31.089Z,29.50
2019-06-27T10:05:58.809Z,29.50
2019-06-27T10:08:27.891Z,29.50
2019-06-27T10:10:55.262Z,29.40
2019-06-27T10:13:22.580Z,29.40
2019-06-27T10:15:49.737Z,29.30
2019-06-27T10:18:16.826Z,29.30
2019-06-27T10:20:43.821Z,29.30
2019-06-27T10:23:10.955Z,29.30
2019-06-27T10:25:38.418Z,29.30
2019-06-27T10:28:05.460Z,29.30
2019-06-27T10:30:32.715Z,29.30
2019-06-27T10:33:00.502Z,29.40
2019-06-27T10:35:27.793Z,29.40
2019-06-27T10:37:54.780Z,29.50
2019-06-27T10:40:21.747Z,29.50
2019-06-27T10:42:48.784Z,29.50
2019-06-27T10:45:15.731Z,29.50
2019-06-27T10:47:43.612Z,29.50
2019-06-27T10:50:10.736Z,29.40
2019-06-27T10:52:38.914Z,29.50
2019-06-27T10:55:06.589Z,29.50
2019-06-27T10:57:33.695Z,29.60
2019-06-27T11:00:00.795Z,29.60
2019-06-27T11:02:27.828Z,29.60
2019-06-27T11:04:56.196Z,29.50
2019-06-27T11:07:23.235Z,29.50
2019-06-27T11:09:50.443Z,29.50
2019-06-27T11:12:17.576Z,29.60
2019-06-27T11:14:58.244Z,29.60
2019-06-27T11:17:13.522Z,29.60
2019-06-27T11:19:51.900Z,29.60
2019-06-27T11:22:09.409Z,29.60
2019-06-27T11:24:36.444Z,29.60
2019-06-27T11:27:03.466Z,29.50
2019-06-27T11:29:30.514Z,29.50
2019-06-27T11:31:59.566Z,29.50
2019-06-27T11:34:26.521Z,29.50
2019-06-27T11:36:53.552Z,29.50
2019-06-27T11:39:23.212Z,29.60
2019-06-27T11:41:49.660Z,29.60
2019-06-27T11:44:16.745Z,29.50
2019-06-27T11:46:43.858Z,29.50
2019-06-27T11:49:10.909Z,29.50
2019-06-27T11:51:37.805Z,29.60
2019-06-27T11:54:04.831Z,29.60
2019-06-27T11:56:31.959Z,29.60
2019-06-27T11:58:59.040Z,29.70
2019-06-27T12:01:26.121Z,29.80
2019-06-27T12:03:54.276Z,29.80
2019-06-27T12:06:21.234Z,29.80
2019-06-27T12:08:48.251Z,29.70
2019-06-27T12:11:15.218Z,29.70
2019-06-27T12:13:42.156Z,29.70
2019-06-27T12:16:09.193Z,29.80
2019-06-27T12:18:36.328Z,29.80
2019-06-27T12:21:05.885Z,29.80
2019-06-27T12:23:32.282Z,29.80
2019-06-27T12:25:59.486Z,29.80
2019-06-27T12:28:26.592Z,29.80
2019-06-27T12:30:53.673Z,29.80
2019-06-27T12:33:20.740Z,29.80
2019-06-27T12:35:47.840Z,29.80
2019-06-27T12:38:14.872Z,29.80
2019-06-27T12:40:41.768Z,29.90
2019-06-27T12:43:08.791Z,29.90
2019-06-27T12:45:35.862Z,29.90
2019-06-27T12:48:07.368Z,29.90
2019-06-27T12:50:31.741Z,30.00
2019-06-27T12:52:58.765Z,30.00
2019-06-27T12:55:25.838Z,30.00
2019-06-27T12:57:52.926Z,30.10
2019-06-27T13:00:21.055Z,30.00
2019-06-27T13:02:47.946Z,30.00
2019-06-27T13:05:15.025Z,30.00
2019-06-27T13:07:42.012Z,30.00
2019-06-27T13:10:09.660Z,30.10
2019-06-27T13:12:36.879Z,30.20
2019-06-27T13:15:04.313Z,30.20
2019-06-27T13:17:31.256Z,30.20
2019-06-27T13:19:58.229Z,30.30
2019-06-27T13:22:25.216Z,30.30
2019-06-27T13:24:52.158Z,30.40
2019-06-27T13:27:19.170Z,30.30
2019-06-27T13:29:46.334Z,30.20
2019-06-27T13:32:13.643Z,30.20
2019-06-27T13:34:41.267Z,30.20
2019-06-27T13:37:08.502Z,30.30
2019-06-27T13:39:35.505Z,30.30
2019-06-27T13:42:02.525Z,30.40
2019-06-27T13:44:29.537Z,30.30
2019-06-27T13:46:56.618Z,30.30
2019-06-27T13:49:23.495Z,30.30
2019-06-27T13:51:50.578Z,30.40
2019-06-27T13:54:17.656Z,30.40
2019-06-27T13:56:44.885Z,30.40
2019-06-27T13:59:12.000Z,30.40
2019-06-27T14:01:40.898Z,30.50
2019-06-27T14:04:07.990Z,30.50
2019-06-27T14:06:35.106Z,30.50
2019-06-27T14:09:02.424Z,30.60
2019-06-27T14:11:29.468Z,30.60
2019-06-27T14:13:56.529Z,30.60
2019-06-27T14:16:23.653Z,30.50
2019-06-27T14:18:50.709Z,30.60
2019-06-27T14:21:17.940Z,30.60
2019-06-27T14:23:44.998Z,30.60
2019-06-27T14:26:12.055Z,30.70
2019-06-27T14:28:39.108Z,30.70
2019-06-27T14:31:06.406Z,30.70
2019-06-27T14:33:33.624Z,30.70
2019-06-27T14:36:02.746Z,30.70
2019-06-27T14:38:29.938Z,30.80
2019-06-27T14:40:56.964Z,30.80
2019-06-27T14:43:24.015Z,30.70
2019-06-27T14:45:51.633Z,30.70
2019-06-27T14:48:19.725Z,30.80
2019-06-27T14:50:46.652Z,30.80
2019-06-27T14:53:13.666Z,30.80
2019-06-27T14:55:40.685Z,30.80
2019-06-27T14:58:07.989Z,30.80
2019-06-27T15:00:35.075Z,30.80
2019-06-27T15:03:02.135Z,30.90
2019-06-27T15:05:33.038Z,30.90
2019-06-27T15:07:58.130Z,30.90
2019-06-27T15:10:25.248Z,30.90
2019-06-27T15:12:57.001Z,30.90
2019-06-27T15:15:21.107Z,30.90
2019-06-27T15:17:48.132Z,30.80
2019-06-27T15:20:15.293Z,30.80
2019-06-27T15:22:42.353Z,30.80
2019-06-27T15:25:09.807Z,30.80
2019-06-27T15:27:37.121Z,30.80
2019-06-27T15:30:06.959Z,30.80
2019-06-27T15:32:34.050Z,30.80
2019-06-27T15:35:01.387Z,30.80
2019-06-27T15:37:28.837Z,30.80
2019-06-27T15:39:56.075Z,30.90
2019-06-27T15:42:23.892Z,30.90
2019-06-27T15:44:51.454Z,30.90
2019-06-27T15:47:18.707Z,30.80
2019-06-27T15:49:46.044Z,30.80
2019-06-27T15:52:13.102Z,30.80
2019-06-27T15:54:40.250Z,30.80
2019-06-27T15:57:07.589Z,30.80
2019-06-27T15:59:34.862Z,30.80
2019-06-27T16:02:05.889Z,30.80
2019-06-27T16:04:35.322Z,30.70
2019-06-27T16:07:02.450Z,30.80
2019-06-27T16:09:29.895Z,30.80
2019-06-27T16:11:57.189Z,30.70
2019-06-27T16:14:24.350Z,30.80
2019-06-27T16:16:51.463Z,30.70
2019-06-27T16:19:18.465Z,30.70
2019-06-27T16:21:52.851Z,30.70
2019-06-27T16:24:20.209Z,30.70
2019-06-27T16:26:49.178Z,30.70
2019-06-27T16:29:16.440Z,30.60
2019-06-27T16:31:43.560Z,30.70
2019-06-27T16:34:10.607Z,30.70
2019-06-27T16:36:38.281Z,30.70
2019-06-27T16:39:05.527Z,30.60
2019-06-27T16:41:32.627Z,30.60
2019-06-27T16:43:59.945Z,30.60
2019-06-27T16:46:27.015Z,30.60
2019-06-27T16:48:54.246Z,30.60
2019-06-27T16:51:21.395Z,30.60
2019-06-27T16:53:48.494Z,30.60
2019-06-27T16:56:15.624Z,30.50
2019-06-27T16:58:42.569Z,30.50
2019-06-27T17:01:13.106Z,30.50
2019-06-27T17:03:40.182Z,30.50
2019-06-27T17:06:07.296Z,30.50
2019-06-27T17:08:34.448Z,30.40
2019-06-27T17:11:01.581Z,30.40
2019-06-27T17:13:28.747Z,30.40
2019-06-27T17:15:55.869Z,30.30
2019-06-27T17:18:23.015Z,30.30
2019-06-27T17:20:50.188Z,30.40
2019-06-27T17:23:17.270Z,30.30
2019-06-27T17:25:44.301Z,30.30
2019-06-27T17:28:11.778Z,30.30
2019-06-27T17:30:38.996Z,30.20
2019-06-27T17:33:06.152Z,30.20
2019-06-27T17:35:33.199Z,30.20
2019-06-27T17:38:00.250Z,30.10
2019-06-27T17:40:27.476Z,30.10
2019-06-27T17:42:54.546Z,30.10
2019-06-27T17:45:21.710Z,30.10
2019-06-27T17:47:49.517Z,30.00
2019-06-27T17:50:16.841Z,30.00
2019-06-27T17:52:43.918Z,30.00
2019-06-27T17:55:11.891Z,29.90
2019-06-27T17:57:38.944Z,29.90
2019-06-27T18:00:06.289Z,29.90
2019-06-27T18:02:33.279Z,29.90
2019-06-27T18:05:00.226Z,29.80
2019-06-27T18:07:27.202Z,29.80
2019-06-27T18:09:57.597Z,29.80
2019-06-27T18:12:25.189Z,29.70
2019-06-27T18:14:52.179Z,29.70
2019-06-27T18:17:32.600Z,29.60
2019-06-27T18:19:48.298Z,29.60
2019-06-27T18:22:15.357Z,29.50
2019-06-27T18:24:42.475Z,29.50
2019-06-27T18:27:09.480Z,29.40
2019-06-27T18:29:36.438Z,29.40
2019-06-27T18:32:03.532Z,29.40
2019-06-27T18:34:30.739Z,29.30
2019-06-27T18:36:57.828Z,29.30
2019-06-27T18:39:25.314Z,29.20
2019-06-27T18:41:54.126Z,29.20
2019-06-27T18:44:21.636Z,29.10
2019-06-27T18:46:48.757Z,29.20
2019-06-27T18:49:15.883Z,29.10
2019-06-27T18:51:42.837Z,29.10
2019-06-27T18:54:10.131Z,29.00
2019-06-27T18:56:37.127Z,28.90
2019-06-27T18:59:04.312Z,28.90
2019-06-27T19:01:31.397Z,28.80
2019-06-27T19:03:58.578Z,28.80
2019-06-27T19:06:25.868Z,28.80
2019-06-27T19:08:53.436Z,28.70
2019-06-27T19:11:21.499Z,28.70
2019-06-27T19:13:48.593Z,28.60
2019-06-27T19:16:15.620Z,28.60
2019-06-27T19:18:42.633Z,28.50
2019-06-27T19:21:11.624Z,28.40
2019-06-27T19:23:52.664Z,28.40
2019-06-27T19:26:19.975Z,28.30
2019-06-27T19:28:47.029Z,28.30
2019-06-27T19:31:14.102Z,28.20
2019-06-27T19:33:41.159Z,28.20
2019-06-27T19:36:08.707Z,28.20
2019-06-27T19:38:35.784Z,28.10
2019-06-27T19:41:03.701Z,28.10
2019-06-27T19:43:30.648Z,28.00
2019-06-27T19:45:57.609Z,27.90
2019-06-27T19:48:24.620Z,27.90
2019-06-27T19:50:51.652Z,27.80
2019-06-27T19:53:18.795Z,27.80
2019-06-27T19:55:45.877Z,27.80
2019-06-27T19:58:12.904Z,27.80
2019-06-27T20:00:40.491Z,27.80
2019-06-27T20:03:07.676Z,27.70
2019-06-27T20:05:35.109Z,27.60
2019-06-27T20:08:17.762Z,27.60
2019-06-27T20:10:31.283Z,27.50
2019-06-27T20:12:58.301Z,27.40
2019-06-27T20:15:25.278Z,27.40
2019-06-27T20:17:53.481Z,27.30
2019-06-27T20:20:20.461Z,27.20
2019-06-27T20:22:47.465Z,27.30
2019-06-27T20:25:14.645Z,27.10
2019-06-27T20:27:41.745Z,27.10
2019-06-27T20:30:09.193Z,27.00
2019-06-27T20:32:36.249Z,26.90
2019-06-27T20:35:03.704Z,26.80
2019-06-27T20:37:30.723Z,26.80
2019-06-27T20:39:57.705Z,26.80
2019-06-27T20:42:24.719Z,26.70
2019-06-27T20:44:52.930Z,26.70
2019-06-27T20:47:20.075Z,26.60
2019-06-27T20:49:47.112Z,26.60
2019-06-27T20:52:14.226Z,26.50
2019-06-27T20:54:41.314Z,26.50
2019-06-27T20:57:08.431Z,26.40
2019-06-27T20:59:35.484Z,26.40
2019-06-27T21:02:02.637Z,26.20
2019-06-27T21:04:29.699Z,26.20
2019-06-27T21:06:56.950Z,26.20
2019-06-27T21:09:25.011Z,26.10
2019-06-27T21:11:52.129Z,26.10
2019-06-27T21:14:19.309Z,26.10
2019-06-27T21:16:46.507Z,25.90
2019-06-27T21:19:13.445Z,26.00
2019-06-27T21:21:41.473Z,25.90
2019-06-27T21:24:08.664Z,25.80
2019-06-27T21:26:35.850Z,25.70
2019-06-27T21:29:02.951Z,25.70
2019-06-27T21:31:30.116Z,25.70
2019-06-27T21:33:57.087Z,25.60
2019-06-27T21:36:24.385Z,25.60
2019-06-27T21:39:06.701Z,25.50
2019-06-27T21:41:20.333Z,25.50
2019-06-27T21:43:47.319Z,25.40
2019-06-27T21:46:14.615Z,25.30
2019-06-27T21:48:41.705Z,25.30
2019-06-27T21:51:08.891Z,25.20
2019-06-27T21:53:36.041Z,25.10
2019-06-27T21:56:03.261Z,25.10
2019-06-27T21:58:31.324Z,25.10
2019-06-27T22:01:00.871Z,25.10
2019-06-27T22:03:27.943Z,25.00
2019-06-27T22:05:55.030Z,24.90
2019-06-27T22:08:22.046Z,24.90
2019-06-27T22:10:49.158Z,24.90
2019-06-27T22:13:16.318Z,24.90
2019-06-27T22:15:44.812Z,25.00
2019-06-27T22:18:12.202Z,25.00
2019-06-27T22:20:40.277Z,24.90
2019-06-27T22:23:07.322Z,24.90
2019-06-27T22:25:40.545Z,24.90
2019-06-27T22:28:03.540Z,24.90
2019-06-27T22:30:30.565Z,24.80
2019-06-27T22:32:59.073Z,24.70
2019-06-27T22:35:26.008Z,24.70
2019-06-27T22:38:12.217Z,24.60
2019-06-27T22:40:58.178Z,24.50
2019-06-27T22:43:43.398Z,24.50
2019-06-27T22:46:29.276Z,24.40
2019-06-27T22:48:58.754Z,24.40
2019-06-27T22:51:46.561Z,24.30
2019-06-27T22:54:15.590Z,24.20
2019-06-27T22:56:42.677Z,24.20
2019-06-27T22:59:09.817Z,24.20
2019-06-27T23:01:36.794Z,24.20
2019-06-27T23:04:03.882Z,24.20
2019-06-27T23:06:30.823Z,24.20
2019-06-27T23:08:58.013Z,24.10
2019-06-27T23:11:25.072Z,24.10
2019-06-27T23:13:52.317Z,24.10
2019-06-27T23:16:19.222Z,24.10
2019-06-27T23:18:46.154Z,24.00
2019-06-27T23:21:13.119Z,24.00
2019-06-27T23:23:40.214Z,24.00
2019-06-27T23:26:07.276Z,23.90
2019-06-27T23:28:35.445Z,23.80
2019-06-27T23:31:02.338Z,23.80
2019-06-27T23:33:30.510Z,23.70
2019-06-27T23:35:58.581Z,23.70
2019-06-27T23:38:25.549Z,23.60
2019-06-27T23:40:52.545Z,23.50
2019-06-27T23:43:19.564Z,23.50
2019-06-27T23:45:46.558Z,23.40
2019-06-27T23:48:13.608Z,23.40
2019-06-27T23:50:40.543Z,23.40
2019-06-27T23:53:07.504Z,23.40
2019-06-27T23:55:34.506Z,23.30
2019-06-27T23:58:01.505Z,23.30
